Muzaffarabad Weather



Muzaffarabad's Current Weather

Temprature 23.39o overcast clouds

overcast clouds

Rain: 0 %

Min Temprature23.39o
Max Temprature23.39o
Humidity43
Wind Speed1.19 m/h
Sun Rise04:58:38
Sun Set19:07:31
Current Time: 24-May-2022 08:03:06
Lat/Lon: 34.37, 73.4711




Muzaffarabad's Geo Location



Muzaffarabad's Weather Forecast

Time Overall Temp Min Temp Max Temp Humidity Wind Speed Rain
24-May-2022 (Tue)
11:00:00 broken clouds 24.780 24.780 27.570 39 2.34 m/h 0 %
14:00:00 scattered clouds 27.620 27.620 29.730 33 2.58 m/h 0 %
17:00:00 scattered clouds 28.120 28.120 28.120 32 1.65 m/h 0 %
20:00:00 broken clouds 22.650 22.650 22.650 46 1.41 m/h 0 %
23:00:00 scattered clouds 20.580 20.580 20.580 52 2.25 m/h 0 %
25-May-2022 (Wed)
02:00:00 clear sky 19.550 19.550 19.550 53 2.38 m/h 0 %
05:00:00 clear sky 18.880 18.880 18.880 52 2.28 m/h 0 %
08:00:00 clear sky 27.010 27.010 27.010 36 0.8 m/h 0 %
11:00:00 clear sky 31.740 31.740 31.740 27 2.4 m/h 0 %
14:00:00 clear sky 33.680 33.680 33.680 24 2.61 m/h 0 %
17:00:00 clear sky 32.970 32.970 32.970 24 2.1 m/h 0 %
20:00:00 clear sky 25.930 25.930 25.930 37 1.2 m/h 0 %
23:00:00 clear sky 23.810 23.810 23.810 43 2.4 m/h 0 %
26-May-2022 (Thu)
02:00:00 clear sky 22.630 22.630 22.630 46 2.43 m/h 0 %
05:00:00 clear sky 21.790 21.790 21.790 46 2.54 m/h 0 %
08:00:00 clear sky 30.450 30.450 30.450 29 0.81 m/h 0 %
11:00:00 clear sky 35.150 35.150 35.150 22 2.25 m/h 0 %
14:00:00 clear sky 37.000 37.000 37.000 19 2.68 m/h 0 %
17:00:00 light rain 34.490 34.490 34.490 24 2.37 m/h 21 %
20:00:00 clear sky 27.150 27.150 27.150 39 2.46 m/h 0 %
23:00:00 clear sky 25.330 25.330 25.330 42 2.86 m/h 0 %
27-May-2022 (Fri)
02:00:00 clear sky 24.270 24.270 24.270 42 2.7 m/h 0 %
05:00:00 clear sky 23.440 23.440 23.440 43 2.71 m/h 0 %
08:00:00 clear sky 32.980 32.980 32.980 25 1.03 m/h 0 %
11:00:00 clear sky 37.810 37.810 37.810 15 2.33 m/h 0 %
14:00:00 clear sky 39.260 39.260 39.260 13 3.68 m/h 0 %
17:00:00 clear sky 37.860 37.860 37.860 14 2.96 m/h 0 %
20:00:00 clear sky 29.380 29.380 29.380 25 2.21 m/h 0 %
23:00:00 clear sky 26.360 26.360 26.360 33 3.33 m/h 0 %
28-May-2022 (Sat)
02:00:00 clear sky 25.240 25.240 25.240 37 3.19 m/h 0 %
05:00:00 few clouds 24.750 24.750 24.750 38 3.05 m/h 0 %
08:00:00 broken clouds 33.360 33.360 33.360 25 1.15 m/h 0 %
11:00:00 broken clouds 37.860 37.860 37.860 17 2.42 m/h 0 %
14:00:00 light rain 26.630 26.630 26.630 53 4.25 m/h 62 %
17:00:00 light rain 26.860 26.860 26.860 55 4.54 m/h 100 %
20:00:00 broken clouds 23.280 23.280 23.280 65 4.11 m/h 0 %
23:00:00 broken clouds 23.870 23.870 23.870 58 3.91 m/h 0 %
29-May-2022 (Sun)
02:00:00 overcast clouds 21.750 21.750 21.750 64 3.77 m/h 0 %
05:00:00 overcast clouds 21.910 21.910 21.910 59 3.3 m/h 0 %
08:00:00 light rain 29.870 29.870 29.870 37 1.71 m/h 21 %

Famous Cities (61)